Coral Leaf — PHNI — position and weather

sailwx.info

Track history (hours):
 
Tides and Currents Weather Stations Pressure Air Temp Water Temp Dewpoint Dewpoint Depression Visibility Wind Speed Wind Dir Waves Ship Positions

Coral Leaf

Last reported at 2017-Feb-24 21:33 UTC. Time now 2017-Feb-24 21:41 UTC.
Position N 53°39' E 008°06'.

Length 108 m; draft 4.7 m.

Type: Tanker. MMSI: 244036000.

Date/timePositionNaut miles runAvg speedWind from/ knotsBaromVisibWave heightAir tempDewpointWater temp
2017-Feb-24 21:33N 53°39' E 008°06'0 0.0
2017-Feb-24 20:30N 53°39' E 008°06'0 0.0
2017-Feb-24 17:30N 53°39' E 008°06'0 0.0
2017-Feb-24 16:18N 53°39' E 008°06'0 0.0
2017-Feb-24 15:18N 53°39' E 008°06'0 0.0
2017-Feb-24 14:33N 53°39' E 008°06'0 0.0
2017-Feb-24 13:33N 53°39' E 008°06'0 0.0
2017-Feb-24 12:33N 53°39' E 008°06'0 0.0
2017-Feb-24 10:33N 53°39' E 008°06'0 0.0
2017-Feb-24 09:33N 53°39' E 008°06'0 0.0
2017-Feb-24 08:15N 53°39' E 008°06'0 0.0
2017-Feb-24 03:33N 53°39' E 008°06'1 0.7
2017-Feb-24 02:33N 53°39' E 008°06'10 9.8
2017-Feb-24 01:33N 53°48' E 007°60'1413.8
2017-Feb-24 00:32N 53°55' E 007°40'6215.1
2017-Feb-23 20:25N 54°55' E 007°07'1315.3
2017-Feb-23 19:34N 55°08' E 007°02'1515.2
2017-Feb-23 18:34N 55°23' E 007°02'1615.7
2017-Feb-23 17:33N 55°39' E 007°02'15014.5
2017-Feb-23 07:14N 57°59' E 008°39'912.6
2017-Feb-23 06:32N 58°04' E 008°51'1212.4
2017-Feb-23 05:32N 58°14' E 009°07'2412.1
2017-Feb-23 03:33N 58°32' E 009°36'1312.5
2017-Feb-23 02:33N 58°44' E 009°42'1313.5
2017-Feb-23 01:33N 58°57' E 009°47'9 9.2
2017-Feb-23 00:33N 59°05' E 009°38'1 1.2
2017-Feb-22 23:31N 59°06' E 009°36'0 0.0
2017-Feb-22 22:31N 59°06' E 009°36'0 0.0
2017-Feb-22 21:31N 59°06' E 009°36'0 0.0
2017-Feb-22 20:31N 59°06' E 009°36'0 0.0
2017-Feb-22 19:31N 59°06' E 009°36'0 0.0
2017-Feb-22 18:31N 59°06' E 009°36'0 0.0
2017-Feb-22 17:31N 59°06' E 009°36'0 0.0
2017-Feb-22 16:31N 59°06' E 009°36'0 0.0
2017-Feb-22 15:28N 59°06' E 009°36'0 0.0
2017-Feb-22 14:31N 59°06' E 009°36'0 0.0
2017-Feb-22 13:31N 59°06' E 009°36'0 0.0
2017-Feb-22 12:31N 59°06' E 009°36'0 0.0
2017-Feb-22 11:31N 59°06' E 009°36'0 0.0
2017-Feb-22 10:31N 59°06' E 009°36'0 0.0
2017-Feb-22 09:31N 59°06' E 009°36'0 0.0
2017-Feb-22 08:31N 59°06' E 009°36'0 0.0
2017-Feb-22 07:33N 59°06' E 009°36'1 1.3
2017-Feb-22 06:31N 59°06' E 009°38'0 0.1
2017-Feb-22 05:31N 59°06' E 009°38'0 0.1
2017-Feb-22 04:31N 59°06' E 009°38'0 0.0
2017-Feb-22 03:31N 59°06' E 009°38'0 0.0
2017-Feb-22 02:31N 59°06' E 009°38'0 0.0
2017-Feb-22 01:31N 59°06' E 009°38'0 0.0
2017-Feb-22 00:31N 59°06' E 009°38'0 0.0
2017-Feb-21 23:31N 59°06' E 009°38'0 0.0
2017-Feb-21 22:31N 59°06' E 009°38'6 5.7
2017-Feb-21 21:33N 59°01' E 009°45'1111.2
2017-Feb-21 20:33N 58°50' E 009°47'1515.3
2017-Feb-21 19:33N 58°35' E 009°46'1514.9
2017-Feb-21 18:33N 58°22' E 009°33'1615.4
2017-Feb-21 17:33N 58°10' E 009°13'1616.0
2017-Feb-21 16:33N 57°59' E 008°53'24615.3
2017-Feb-21 00:25N 54°22' E 005°22'1315.2
2017-Feb-20 23:33N 54°10' E 005°11'1514.7
2017-Feb-20 22:32N 53°57' E 005°02'1515.1
2017-Feb-20 21:32N 53°42' E 004°53'1514.9
2017-Feb-20 20:33N 53°29' E 004°45'1514.6
2017-Feb-20 19:32N 53°15' E 004°34'1414.0
2017-Feb-20 18:33N 53°03' E 004°24'1413.7
2017-Feb-20 17:33N 52°51' E 004°13'1413.7
2017-Feb-20 16:33N 52°40' E 003°59'1413.8
2017-Feb-20 15:32N 52°30' E 003°43'1313.7
2017-Feb-20 14:33N 52°20' E 003°28'1614.0
2017-Feb-20 13:26N 52°09' E 003°10'3314.7
2017-Feb-20 11:09N 51°44' E 002°33'1015.1
2017-Feb-20 10:30N 51°37' E 002°22'1515.4
2017-Feb-20 09:33N 51°26' E 002°08'1514.7
2017-Feb-20 08:33N 51°12' E 001°58'1616.3
2017-Feb-20 07:33N 51°02' E 001°38'1616.2
2017-Feb-20 06:33N 50°48' E 001°24'3015.1
2017-Feb-20 04:33N 50°28' E 000°49'1615.9
2017-Feb-20 03:32N 50°24' E 000°24'1616.2
2017-Feb-20 02:33N 50°20' E 000°00'1816.4
2017-Feb-20 01:29N 50°15' W 000°27'1516.4
2017-Feb-20 00:33N 50°11' W 000°49'1616.0
2017-Feb-19 23:33N 50°07' W 001°14'1515.4
2017-Feb-19 22:33N 50°03' W 001°37'1514.6
2017-Feb-19 21:33N 49°59' W 001°59'3213.9
2017-Feb-19 19:15N 49°51' W 002°47'1513.9
2017-Feb-19 18:11N 49°45' W 003°08'5314.4
2017-Feb-19 14:30N 49°18' W 004°18'4314.7
2017-Feb-19 11:33N 48°55' W 005°14'1515.1
2017-Feb-19 10:33N 48°48' W 005°34'1514.9
2017-Feb-19 09:31N 48°35' W 005°47'52815.1
2017-Feb-17 22:33N 40°19' W 009°57'1515.4
2017-Feb-17 21:33N 40°03' W 009°57'1515.4
2017-Feb-17 20:33N 39°48' W 009°57'1515.3
2017-Feb-17 19:33N 39°32' W 009°57'1514.7
2017-Feb-17 18:33N 39°18' W 009°57'1515.0
2017-Feb-17 17:33N 39°03' W 009°57'1515.0
2017-Feb-17 16:33N 38°48' W 009°57'1515.0
2017-Feb-17 15:34N 38°33' W 009°54'1515.2
2017-Feb-17 14:33N 38°18' W 009°50'1515.0
2017-Feb-17 13:33N 38°03' W 009°46'1515.0
2017-Feb-17 12:34N 37°49' W 009°41'1514.9
2017-Feb-17 11:33N 37°34' W 009°36'22013.7
2017-Feb-16 19:34N 35°59' W 005°29'1515.1
2017-Feb-16 18:34N 36°02' W 005°11'22813.4
2017-Feb-16 01:33N 37°25' W 000°47'1413.7
2017-Feb-16 00:32N 37°35' W 000°34'13613.2
2017-Feb-15 14:11N 39°18' E 001°20'812.1
2017-Feb-15 13:33N 39°22' E 001°28'1212.2
2017-Feb-15 12:33N 39°29' E 001°41'1512.3
2017-Feb-15 11:18N 39°37' E 001°58'912.6
2017-Feb-15 10:33N 39°42' E 002°08'1212.4
2017-Feb-15 09:33N 39°49' E 002°22'1312.7
2017-Feb-15 08:33N 39°56' E 002°36'1313.0
2017-Feb-15 07:33N 40°03' E 002°50'1313.1
2017-Feb-15 06:33N 40°10' E 003°04'  
Track history (hours):
 
Tides and Currents Weather Stations Pressure Air Temp Water Temp Dewpoint Dewpoint Depression Visibility Wind Speed Wind Dir Waves Ship Positions

Coral Leaf

Last reported at 2017-Feb-24 21:33 UTC. Time now 2017-Feb-24 21:41 UTC.
Position N 53°39' E 008°06'.

Length 108 m; draft 4.7 m.

Type: Tanker. MMSI: 244036000.

Date/timePositionNaut miles runAvg speedWind from/ knotsBaromVisibWave heightAir tempDewpointWater temp
2017-Feb-24 21:33N 53°39' E 008°06'0 0.0
2017-Feb-24 20:30N 53°39' E 008°06'0 0.0
2017-Feb-24 17:30N 53°39' E 008°06'0 0.0
2017-Feb-24 16:18N 53°39' E 008°06'0 0.0
2017-Feb-24 15:18N 53°39' E 008°06'0 0.0
2017-Feb-24 14:33N 53°39' E 008°06'0 0.0
2017-Feb-24 13:33N 53°39' E 008°06'0 0.0
2017-Feb-24 12:33N 53°39' E 008°06'0 0.0
2017-Feb-24 10:33N 53°39' E 008°06'0 0.0
2017-Feb-24 09:33N 53°39' E 008°06'0 0.0
2017-Feb-24 08:15N 53°39' E 008°06'0 0.0
2017-Feb-24 03:33N 53°39' E 008°06'1 0.7
2017-Feb-24 02:33N 53°39' E 008°06'10 9.8
2017-Feb-24 01:33N 53°48' E 007°60'1413.8
2017-Feb-24 00:32N 53°55' E 007°40'6215.1
2017-Feb-23 20:25N 54°55' E 007°07'1315.3
2017-Feb-23 19:34N 55°08' E 007°02'1515.2
2017-Feb-23 18:34N 55°23' E 007°02'1615.7
2017-Feb-23 17:33N 55°39' E 007°02'15014.5
2017-Feb-23 07:14N 57°59' E 008°39'912.6
2017-Feb-23 06:32N 58°04' E 008°51'1212.4
2017-Feb-23 05:32N 58°14' E 009°07'2412.1
2017-Feb-23 03:33N 58°32' E 009°36'1312.5
2017-Feb-23 02:33N 58°44' E 009°42'1313.5
2017-Feb-23 01:33N 58°57' E 009°47'9 9.2
2017-Feb-23 00:33N 59°05' E 009°38'1 1.2
2017-Feb-22 23:31N 59°06' E 009°36'0 0.0
2017-Feb-22 22:31N 59°06' E 009°36'0 0.0
2017-Feb-22 21:31N 59°06' E 009°36'0 0.0
2017-Feb-22 20:31N 59°06' E 009°36'0 0.0
2017-Feb-22 19:31N 59°06' E 009°36'0 0.0
2017-Feb-22 18:31N 59°06' E 009°36'0 0.0
2017-Feb-22 17:31N 59°06' E 009°36'0 0.0
2017-Feb-22 16:31N 59°06' E 009°36'0 0.0
2017-Feb-22 15:28N 59°06' E 009°36'0 0.0
2017-Feb-22 14:31N 59°06' E 009°36'0 0.0
2017-Feb-22 13:31N 59°06' E 009°36'0 0.0
2017-Feb-22 12:31N 59°06' E 009°36'0 0.0
2017-Feb-22 11:31N 59°06' E 009°36'0 0.0
2017-Feb-22 10:31N 59°06' E 009°36'0 0.0
2017-Feb-22 09:31N 59°06' E 009°36'0 0.0
2017-Feb-22 08:31N 59°06' E 009°36'0 0.0
2017-Feb-22 07:33N 59°06' E 009°36'1 1.3
2017-Feb-22 06:31N 59°06' E 009°38'0 0.1
2017-Feb-22 05:31N 59°06' E 009°38'0 0.1
2017-Feb-22 04:31N 59°06' E 009°38'0 0.0
2017-Feb-22 03:31N 59°06' E 009°38'0 0.0
2017-Feb-22 02:31N 59°06' E 009°38'0 0.0
2017-Feb-22 01:31N 59°06' E 009°38'0 0.0
2017-Feb-22 00:31N 59°06' E 009°38'0 0.0
2017-Feb-21 23:31N 59°06' E 009°38'0 0.0
2017-Feb-21 22:31N 59°06' E 009°38'6 5.7
2017-Feb-21 21:33N 59°01' E 009°45'1111.2
2017-Feb-21 20:33N 58°50' E 009°47'1515.3
2017-Feb-21 19:33N 58°35' E 009°46'1514.9
2017-Feb-21 18:33N 58°22' E 009°33'1615.4
2017-Feb-21 17:33N 58°10' E 009°13'1616.0
2017-Feb-21 16:33N 57°59' E 008°53'24615.3
2017-Feb-21 00:25N 54°22' E 005°22'1315.2
2017-Feb-20 23:33N 54°10' E 005°11'1514.7
2017-Feb-20 22:32N 53°57' E 005°02'1515.1
2017-Feb-20 21:32N 53°42' E 004°53'1514.9
2017-Feb-20 20:33N 53°29' E 004°45'1514.6
2017-Feb-20 19:32N 53°15' E 004°34'1414.0
2017-Feb-20 18:33N 53°03' E 004°24'1413.7
2017-Feb-20 17:33N 52°51' E 004°13'1413.7
2017-Feb-20 16:33N 52°40' E 003°59'1413.8
2017-Feb-20 15:32N 52°30' E 003°43'1313.7
2017-Feb-20 14:33N 52°20' E 003°28'1614.0
2017-Feb-20 13:26N 52°09' E 003°10'3314.7
2017-Feb-20 11:09N 51°44' E 002°33'1015.1
2017-Feb-20 10:30N 51°37' E 002°22'1515.4
2017-Feb-20 09:33N 51°26' E 002°08'1514.7
2017-Feb-20 08:33N 51°12' E 001°58'1616.3
2017-Feb-20 07:33N 51°02' E 001°38'1616.2
2017-Feb-20 06:33N 50°48' E 001°24'3015.1
2017-Feb-20 04:33N 50°28' E 000°49'1615.9
2017-Feb-20 03:32N 50°24' E 000°24'1616.2
2017-Feb-20 02:33N 50°20' E 000°00'1816.4
2017-Feb-20 01:29N 50°15' W 000°27'1516.4
2017-Feb-20 00:33N 50°11' W 000°49'1616.0
2017-Feb-19 23:33N 50°07' W 001°14'1515.4
2017-Feb-19 22:33N 50°03' W 001°37'1514.6
2017-Feb-19 21:33N 49°59' W 001°59'3213.9
2017-Feb-19 19:15N 49°51' W 002°47'1513.9
2017-Feb-19 18:11N 49°45' W 003°08'5314.4
2017-Feb-19 14:30N 49°18' W 004°18'4314.7
2017-Feb-19 11:33N 48°55' W 005°14'1515.1
2017-Feb-19 10:33N 48°48' W 005°34'1514.9
2017-Feb-19 09:31N 48°35' W 005°47'52815.1
2017-Feb-17 22:33N 40°19' W 009°57'1515.4
2017-Feb-17 21:33N 40°03' W 009°57'1515.4
2017-Feb-17 20:33N 39°48' W 009°57'1515.3
2017-Feb-17 19:33N 39°32' W 009°57'1514.7
2017-Feb-17 18:33N 39°18' W 009°57'1515.0
2017-Feb-17 17:33N 39°03' W 009°57'1515.0
2017-Feb-17 16:33N 38°48' W 009°57'1515.0
2017-Feb-17 15:34N 38°33' W 009°54'1515.2
2017-Feb-17 14:33N 38°18' W 009°50'1515.0
2017-Feb-17 13:33N 38°03' W 009°46'1515.0
2017-Feb-17 12:34N 37°49' W 009°41'1514.9
2017-Feb-17 11:33N 37°34' W 009°36'22013.7
2017-Feb-16 19:34N 35°59' W 005°29'1515.1
2017-Feb-16 18:34N 36°02' W 005°11'22813.4
2017-Feb-16 01:33N 37°25' W 000°47'1413.7
2017-Feb-16 00:32N 37°35' W 000°34'13613.2
2017-Feb-15 14:11N 39°18' E 001°20'812.1
2017-Feb-15 13:33N 39°22' E 001°28'1212.2
2017-Feb-15 12:33N 39°29' E 001°41'1512.3
2017-Feb-15 11:18N 39°37' E 001°58'912.6
2017-Feb-15 10:33N 39°42' E 002°08'1212.4
2017-Feb-15 09:33N 39°49' E 002°22'1312.7
2017-Feb-15 08:33N 39°56' E 002°36'1313.0
2017-Feb-15 07:33N 40°03' E 002°50'1313.1
2017-Feb-15 06:33N 40°10' E 003°04'  

Dump ship's entire track history